createdAt,value
2023-02-19T00:00:13.448Z,56.81
2023-02-19T00:02:39.952Z,56.68
2023-02-19T00:05:06.460Z,57.20
2023-02-19T00:07:32.907Z,57.39
2023-02-19T00:09:59.349Z,56.80
2023-02-19T00:12:26.448Z,56.83
2023-02-19T00:14:52.836Z,57.18
2023-02-19T00:17:19.322Z,56.62
2023-02-19T00:19:45.931Z,57.24
2023-02-19T00:22:13.944Z,56.69
2023-02-19T00:24:47.349Z,56.24
2023-02-19T00:27:15.847Z,56.65
2023-02-19T00:29:42.247Z,56.74
2023-02-19T00:32:08.670Z,57.11
2023-02-19T00:34:35.016Z,57.39
2023-02-19T00:37:02.433Z,58.35
2023-02-19T00:39:28.873Z,57.60
2023-02-19T00:41:55.268Z,57.96
2023-02-19T00:44:21.670Z,57.30
2023-02-19T00:46:48.075Z,57.73
2023-02-19T00:49:14.506Z,58.02
2023-02-19T00:51:40.912Z,58.06
2023-02-19T00:54:07.371Z,58.37
2023-02-19T00:56:33.910Z,58.29
2023-02-19T00:59:00.340Z,58.44
2023-02-19T01:01:26.769Z,58.77
2023-02-19T01:03:53.211Z,58.88
2023-02-19T01:06:19.733Z,58.14
2023-02-19T01:08:46.072Z,57.85
2023-02-19T01:11:12.812Z,58.41
2023-02-19T01:13:39.312Z,57.89
2023-02-19T01:16:05.771Z,57.31
2023-02-19T01:18:32.229Z,57.66
2023-02-19T01:20:58.600Z,57.15
2023-02-19T01:23:24.949Z,57.56
2023-02-19T01:25:51.275Z,57.25
2023-02-19T01:28:17.642Z,57.33
2023-02-19T01:30:43.999Z,56.57
2023-02-19T01:33:10.346Z,56.96
2023-02-19T01:35:36.763Z,57.61
2023-02-19T01:38:09.280Z,57.56
2023-02-19T01:43:15.959Z,58.22
2023-02-19T01:45:42.331Z,57.85
2023-02-19T01:48:08.665Z,57.79
2023-02-19T01:50:35.127Z,57.84
2023-02-19T01:53:01.548Z,58.40
2023-02-19T01:55:27.974Z,57.71
2023-02-19T01:57:54.346Z,57.95
2023-02-19T02:00:20.759Z,58.15
2023-02-19T02:02:47.156Z,57.86
2023-02-19T02:05:13.500Z,58.56
2023-02-19T02:07:39.850Z,58.24
2023-02-19T02:10:06.237Z,58.93
2023-02-19T02:15:12.940Z,59.43
2023-02-19T02:17:39.295Z,59.36
2023-02-19T02:20:07.855Z,58.98
2023-02-19T02:22:34.247Z,58.61
2023-02-19T02:25:00.629Z,58.47
2023-02-19T02:30:08.355Z,58.49
2023-02-19T02:32:34.756Z,58.39
2023-02-19T02:35:07.121Z,58.61
2023-02-19T02:37:33.689Z,58.26
2023-02-19T02:40:00.171Z,57.69
2023-02-19T02:42:26.651Z,57.90
2023-02-19T02:44:53.113Z,58.55
2023-02-19T02:47:19.547Z,59.03
2023-02-19T02:49:46.002Z,58.02
2023-02-19T02:52:12.486Z,58.87
2023-02-19T02:54:38.959Z,58.26
2023-02-19T02:57:05.443Z,58.63
2023-02-19T02:59:36.025Z,57.92
2023-02-19T03:04:42.765Z,57.78
2023-02-19T03:07:09.256Z,57.94
2023-02-19T03:09:35.655Z,58.23
2023-02-19T03:12:02.037Z,58.38
2023-02-19T03:14:28.440Z,59.08
2023-02-19T03:16:55.153Z,61.86
2023-02-19T03:19:21.669Z,61.57
2023-02-19T03:21:52.869Z,61.61
2023-02-19T03:24:19.215Z,60.65
2023-02-19T03:26:45.648Z,61.11
2023-02-19T03:31:52.563Z,61.15
2023-02-19T03:34:32.515Z,60.59
2023-02-19T03:37:02.682Z,58.09
2023-02-19T03:39:29.116Z,55.92
2023-02-19T03:41:55.688Z,56.69
2023-02-19T03:44:22.080Z,57.61
2023-02-19T03:46:49.159Z,56.21
2023-02-19T03:49:15.613Z,55.98
2023-02-19T03:51:42.073Z,54.87
2023-02-19T03:54:08.581Z,55.56
2023-02-19T03:56:35.095Z,56.35
2023-02-19T03:59:01.492Z,55.76
2023-02-19T04:01:27.900Z,56.42
2023-02-19T04:03:54.365Z,57.35
2023-02-19T04:06:20.728Z,57.08
2023-02-19T04:08:47.124Z,56.94
2023-02-19T04:11:13.490Z,56.89
2023-02-19T04:13:48.544Z,57.42
2023-02-19T04:16:16.170Z,58.19
2023-02-19T04:18:42.522Z,57.75
2023-02-19T04:21:09.112Z,57.48
2023-02-19T04:23:35.728Z,57.35
2023-02-19T04:26:02.140Z,57.04
2023-02-19T04:28:40.725Z,56.96
2023-02-19T04:31:07.122Z,56.85
2023-02-19T04:33:40.172Z,57.03
2023-02-19T04:36:06.619Z,57.45
2023-02-19T04:38:33.048Z,57.53
2023-02-19T04:40:59.545Z,58.04
2023-02-19T04:43:25.994Z,57.73
2023-02-19T04:45:52.442Z,57.31
2023-02-19T04:48:18.849Z,56.98
2023-02-19T04:50:45.306Z,56.96
2023-02-19T04:53:11.768Z,57.13
2023-02-19T04:55:38.216Z,56.61
2023-02-19T04:58:04.635Z,56.65
2023-02-19T05:00:39.490Z,56.85
2023-02-19T05:08:47.312Z,56.95
2023-02-19T05:11:13.865Z,56.19
2023-02-19T05:13:40.410Z,55.80
2023-02-19T05:16:06.877Z,55.82
2023-02-19T05:18:33.285Z,56.52
2023-02-19T05:20:59.722Z,56.86
2023-02-19T05:23:26.247Z,56.41
2023-02-19T05:25:52.694Z,55.94
2023-02-19T05:28:19.198Z,55.85
2023-02-19T05:30:45.626Z,55.74
2023-02-19T05:33:12.029Z,55.59
2023-02-19T05:35:38.457Z,55.20
2023-02-19T05:38:04.888Z,55.44
2023-02-19T05:40:31.304Z,55.24
2023-02-19T05:42:57.757Z,55.15
2023-02-19T05:45:24.102Z,54.69
2023-02-19T05:47:50.531Z,54.86
2023-02-19T05:50:16.937Z,54.88
2023-02-19T05:52:43.292Z,56.50
2023-02-19T05:55:09.655Z,57.91
2023-02-19T05:57:36.025Z,58.47
2023-02-19T06:00:02.434Z,58.42
2023-02-19T06:02:28.800Z,58.78
2023-02-19T06:04:55.287Z,58.76
2023-02-19T06:07:21.621Z,59.00
2023-02-19T06:09:47.990Z,58.93
2023-02-19T06:12:14.395Z,58.67
2023-02-19T06:14:40.758Z,58.44
2023-02-19T06:17:07.110Z,58.62
2023-02-19T06:19:36.044Z,58.88
2023-02-19T06:22:02.411Z,57.45
2023-02-19T06:24:28.781Z,57.53
2023-02-19T06:26:56.237Z,57.48
2023-02-19T06:29:22.753Z,57.76
2023-02-19T06:31:52.043Z,57.42
2023-02-19T06:34:18.529Z,58.39
2023-02-19T06:36:44.894Z,58.09
2023-02-19T06:41:51.583Z,59.05
2023-02-19T06:44:18.021Z,58.65
2023-02-19T06:46:44.439Z,58.55
2023-02-19T06:49:10.900Z,57.85
2023-02-19T06:51:37.451Z,57.59
2023-02-19T06:54:04.829Z,57.08
2023-02-19T06:56:44.836Z,56.75
2023-02-19T06:59:13.913Z,58.17
2023-02-19T07:01:40.270Z,57.45
2023-02-19T07:04:06.704Z,57.84
2023-02-19T07:06:33.055Z,57.88
2023-02-19T07:08:59.550Z,58.02
2023-02-19T07:11:25.932Z,57.71
2023-02-19T07:13:52.506Z,58.11
2023-02-19T07:16:18.900Z,58.44
2023-02-19T07:18:45.457Z,58.26
2023-02-19T07:21:12.042Z,57.53
2023-02-19T07:23:38.652Z,57.20
2023-02-19T07:26:05.440Z,57.22
2023-02-19T07:28:40.122Z,57.39
2023-02-19T07:31:07.192Z,57.64
2023-02-19T07:33:33.606Z,57.99
2023-02-19T07:36:00.107Z,58.02
2023-02-19T07:38:26.498Z,57.79
2023-02-19T07:40:52.929Z,57.69
2023-02-19T07:46:06.182Z,58.34
2023-02-19T07:48:32.586Z,57.99
2023-02-19T07:50:59.005Z,57.95
2023-02-19T07:53:25.423Z,57.78
2023-02-19T07:55:51.917Z,57.30
2023-02-19T07:58:18.349Z,57.72
2023-02-19T08:00:44.802Z,58.10
2023-02-19T08:03:11.308Z,57.55
2023-02-19T08:05:37.748Z,57.76
2023-02-19T08:08:04.159Z,58.54
2023-02-19T08:10:30.602Z,58.37
2023-02-19T08:12:57.131Z,58.49
2023-02-19T08:15:23.593Z,58.66
2023-02-19T08:17:50.030Z,58.36
2023-02-19T08:20:16.571Z,58.68
2023-02-19T08:22:42.967Z,57.88
2023-02-19T08:25:09.363Z,57.48
2023-02-19T08:27:35.863Z,57.51
2023-02-19T08:30:03.625Z,57.65
2023-02-19T08:32:30.116Z,58.21
2023-02-19T08:34:56.511Z,58.73
2023-02-19T08:37:22.948Z,58.52
2023-02-19T08:39:49.404Z,58.58
2023-02-19T08:42:15.960Z,58.64
2023-02-19T08:44:42.425Z,58.14
2023-02-19T08:47:08.883Z,58.19
2023-02-19T08:49:35.264Z,57.52
2023-02-19T08:52:01.662Z,55.89
2023-02-19T08:54:28.058Z,56.90
2023-02-19T08:56:57.440Z,57.76
2023-02-19T08:59:23.819Z,57.31
2023-02-19T09:01:50.290Z,57.58
2023-02-19T09:04:16.886Z,56.58
2023-02-19T09:06:50.754Z,56.42
2023-02-19T09:09:17.339Z,55.91
2023-02-19T09:11:46.879Z,55.81
2023-02-19T09:14:14.303Z,55.31
2023-02-19T09:16:40.665Z,56.19
2023-02-19T09:19:07.100Z,54.79
2023-02-19T09:21:33.502Z,54.88
2023-02-19T09:23:59.934Z,55.69
2023-02-19T09:26:26.416Z,55.14
2023-02-19T09:28:53.052Z,54.84
2023-02-19T09:31:19.599Z,54.76
2023-02-19T09:33:46.065Z,54.40
2023-02-19T09:36:12.508Z,53.71
2023-02-19T09:38:38.907Z,53.85
2023-02-19T09:41:05.363Z,53.97
2023-02-19T09:43:31.873Z,54.02
2023-02-19T09:45:58.306Z,53.73
2023-02-19T09:48:24.768Z,54.15
2023-02-19T09:50:51.189Z,53.41
2023-02-19T09:53:17.613Z,53.95
2023-02-19T09:55:44.023Z,54.09
2023-02-19T09:58:10.587Z,53.96
2023-02-19T10:00:36.968Z,53.92
2023-02-19T10:03:03.424Z,53.81
2023-02-19T10:05:29.954Z,54.22
2023-02-19T10:07:56.526Z,54.51
2023-02-19T10:10:22.973Z,54.48
2023-02-19T10:12:49.435Z,53.64
2023-02-19T10:15:15.909Z,54.23
2023-02-19T10:17:42.332Z,54.65
2023-02-19T10:20:08.799Z,54.19
2023-02-19T10:22:35.258Z,54.20
2023-02-19T10:25:01.687Z,54.16
2023-02-19T10:27:28.117Z,53.17
2023-02-19T10:29:54.490Z,53.61
2023-02-19T10:32:21.861Z,54.40
2023-02-19T10:34:50.713Z,52.76
2023-02-19T10:37:17.286Z,54.24
2023-02-19T10:39:45.939Z,55.15
2023-02-19T10:42:15.493Z,53.67
2023-02-19T10:44:42.920Z,54.18
2023-02-19T10:47:09.293Z,53.56
2023-02-19T10:49:36.038Z,53.34
2023-02-19T10:52:02.512Z,52.82
2023-02-19T10:54:29.054Z,52.26
2023-02-19T10:56:55.446Z,52.16
2023-02-19T10:59:21.843Z,52.59
2023-02-19T11:01:48.241Z,51.62
2023-02-19T11:04:14.756Z,52.39
2023-02-19T11:06:41.235Z,53.92
2023-02-19T11:09:10.465Z,54.15
2023-02-19T11:11:36.899Z,53.94
2023-02-19T11:14:03.334Z,53.79
2023-02-19T11:16:29.738Z,53.86
2023-02-19T11:18:57.157Z,54.24
2023-02-19T11:21:23.841Z,53.60
2023-02-19T11:23:50.236Z,54.88
2023-02-19T11:26:16.640Z,54.29
2023-02-19T11:28:43.062Z,54.05
2023-02-19T11:31:10.332Z,53.73
2023-02-19T11:33:37.135Z,53.84
2023-02-19T11:36:03.498Z,54.28
2023-02-19T11:38:29.996Z,54.02
2023-02-19T11:41:04.084Z,53.87
2023-02-19T11:43:31.750Z,54.71
2023-02-19T11:45:59.004Z,55.51
2023-02-19T11:48:25.358Z,54.90
2023-02-19T11:50:51.736Z,54.11
2023-02-19T11:53:18.193Z,54.44
2023-02-19T11:55:45.401Z,54.68
2023-02-19T11:58:11.856Z,54.33
2023-02-19T12:00:38.273Z,54.71
2023-02-19T12:03:04.725Z,53.77
2023-02-19T12:05:31.137Z,54.84
2023-02-19T12:08:01.575Z,55.09
2023-02-19T12:10:28.644Z,55.70
2023-02-19T12:12:55.754Z,55.13
2023-02-19T12:15:33.015Z,54.87
2023-02-19T12:17:59.482Z,54.94
2023-02-19T12:20:25.921Z,56.17
2023-02-19T12:22:52.351Z,57.41
2023-02-19T12:25:18.841Z,57.10
2023-02-19T12:27:45.301Z,57.89
2023-02-19T12:30:11.779Z,57.65
2023-02-19T12:32:38.241Z,57.58
2023-02-19T12:35:04.692Z,56.55
2023-02-19T12:37:31.138Z,57.97
2023-02-19T12:39:57.577Z,57.80
2023-02-19T12:42:24.009Z,56.62
2023-02-19T12:44:50.490Z,56.48
2023-02-19T12:47:16.901Z,57.02
2023-02-19T12:49:43.388Z,56.97
2023-02-19T12:52:10.273Z,57.57
2023-02-19T12:54:36.730Z,57.71
2023-02-19T12:57:03.221Z,55.98
2023-02-19T12:59:29.701Z,55.72
2023-02-19T13:01:56.232Z,55.93
2023-02-19T13:04:22.660Z,56.57
2023-02-19T13:06:49.116Z,56.24
2023-02-19T13:09:15.599Z,56.96
2023-02-19T13:11:41.998Z,56.85
2023-02-19T13:14:08.385Z,56.85
2023-02-19T13:16:34.945Z,56.61
2023-02-19T13:19:01.403Z,56.48
2023-02-19T13:21:27.879Z,55.70
2023-02-19T13:23:54.336Z,56.02
2023-02-19T13:26:20.791Z,55.00
2023-02-19T13:28:47.530Z,54.81
2023-02-19T13:31:14.323Z,55.15
2023-02-19T13:33:42.497Z,55.18
2023-02-19T13:36:08.961Z,55.30
2023-02-19T13:38:35.387Z,56.03
2023-02-19T13:41:01.821Z,55.98
2023-02-19T13:43:28.255Z,56.13
2023-02-19T13:45:54.733Z,55.55
2023-02-19T13:48:21.359Z,55.58
2023-02-19T13:50:47.837Z,54.68
2023-02-19T13:53:14.318Z,54.11
2023-02-19T13:55:43.677Z,54.09
2023-02-19T13:58:10.122Z,53.74
2023-02-19T14:00:36.523Z,53.63
2023-02-19T14:03:03.000Z,53.71
2023-02-19T14:05:29.324Z,53.56
2023-02-19T14:07:55.751Z,53.56
2023-02-19T14:10:22.121Z,53.46
2023-02-19T14:12:51.456Z,52.63
2023-02-19T14:15:18.262Z,52.97
2023-02-19T14:17:44.814Z,52.53
2023-02-19T14:20:12.235Z,52.92
2023-02-19T14:22:38.628Z,52.56
2023-02-19T14:25:05.055Z,52.87
2023-02-19T14:27:31.544Z,51.97
2023-02-19T14:30:00.319Z,52.11
2023-02-19T14:32:27.269Z,51.74
2023-02-19T14:34:53.671Z,51.96
2023-02-19T14:37:20.058Z,51.71
2023-02-19T14:39:48.913Z,51.25
2023-02-19T14:42:18.131Z,51.35
2023-02-19T14:44:56.676Z,51.05
2023-02-19T14:47:23.110Z,50.92
2023-02-19T14:49:49.539Z,51.18
2023-02-19T14:52:15.926Z,51.35
2023-02-19T14:54:45.029Z,50.96
2023-02-19T14:57:11.499Z,51.63
2023-02-19T14:59:37.964Z,51.79
2023-02-19T15:02:04.405Z,51.12
2023-02-19T15:04:30.875Z,51.61
2023-02-19T15:06:57.347Z,51.04
2023-02-19T15:09:23.730Z,51.13
2023-02-19T15:11:50.125Z,51.66
2023-02-19T15:14:16.724Z,51.26
2023-02-19T15:16:43.158Z,51.02
2023-02-19T15:19:09.631Z,51.42
2023-02-19T15:21:35.969Z,52.09
2023-02-19T15:24:02.373Z,52.66
2023-02-19T15:26:29.026Z,52.07
2023-02-19T15:28:55.433Z,52.15
2023-02-19T15:31:21.889Z,51.39
2023-02-19T15:33:48.344Z,50.87
2023-02-19T15:36:14.800Z,51.07
2023-02-19T15:38:41.305Z,50.55
2023-02-19T15:41:07.798Z,50.14
2023-02-19T15:43:34.213Z,50.34
2023-02-19T15:46:00.578Z,50.52
2023-02-19T15:48:27.039Z,50.89
2023-02-19T15:50:55.673Z,51.02
2023-02-19T15:53:22.373Z,50.67
2023-02-19T15:55:48.905Z,50.18
2023-02-19T15:58:15.585Z,49.90
2023-02-19T16:00:42.046Z,49.44
2023-02-19T16:03:10.649Z,49.21
2023-02-19T16:05:37.107Z,49.24
2023-02-19T16:08:03.531Z,48.28
2023-02-19T16:10:29.957Z,48.77
2023-02-19T16:12:56.738Z,49.52
2023-02-19T16:15:23.387Z,49.85
2023-02-19T16:17:51.071Z,49.49
2023-02-19T16:20:18.213Z,49.80
2023-02-19T16:22:46.559Z,49.36
2023-02-19T16:25:12.972Z,49.59
2023-02-19T16:27:40.658Z,48.98
2023-02-19T16:30:07.203Z,49.06
2023-02-19T16:32:33.660Z,49.06
2023-02-19T16:35:00.097Z,49.61
2023-02-19T16:37:26.583Z,50.18
2023-02-19T16:39:53.045Z,49.66
2023-02-19T16:42:21.835Z,49.56
2023-02-19T16:44:48.260Z,49.50
2023-02-19T16:47:14.677Z,49.66
2023-02-19T16:49:49.102Z,49.82
2023-02-19T16:52:16.070Z,50.06
2023-02-19T16:54:42.496Z,50.48
2023-02-19T16:57:08.883Z,50.51
2023-02-19T16:59:35.303Z,51.08
2023-02-19T17:02:01.694Z,51.30
2023-02-19T17:04:28.141Z,50.45
2023-02-19T17:06:54.570Z,51.52
2023-02-19T17:09:20.975Z,50.63
2023-02-19T17:11:47.437Z,50.93
2023-02-19T17:14:13.925Z,51.73
2023-02-19T17:16:40.776Z,52.37
2023-02-19T17:19:07.282Z,53.26
2023-02-19T17:21:33.770Z,53.19
2023-02-19T17:24:00.300Z,52.86
2023-02-19T17:26:26.721Z,53.12
2023-02-19T17:28:53.116Z,53.46
2023-02-19T17:31:23.977Z,53.69
2023-02-19T17:33:50.597Z,53.24
2023-02-19T17:36:17.972Z,53.25
2023-02-19T17:38:44.613Z,53.66
2023-02-19T17:41:11.337Z,53.52
2023-02-19T17:43:37.921Z,53.69
2023-02-19T17:46:04.363Z,53.66
2023-02-19T17:48:30.827Z,54.27
2023-02-19T17:50:57.219Z,54.04
2023-02-19T17:53:23.621Z,53.93
2023-02-19T17:55:50.939Z,54.00
2023-02-19T17:58:17.377Z,53.69
2023-02-19T18:00:43.793Z,53.82
2023-02-19T18:03:10.183Z,53.70
2023-02-19T18:05:36.572Z,53.77
2023-02-19T18:08:02.933Z,53.99
2023-02-19T18:10:29.332Z,53.88
2023-02-19T18:12:55.730Z,53.10
2023-02-19T18:15:22.242Z,53.29
2023-02-19T18:17:48.747Z,53.08
2023-02-19T18:20:15.309Z,53.58
2023-02-19T18:22:41.658Z,53.25
2023-02-19T18:25:08.042Z,53.27
2023-02-19T18:27:34.450Z,52.95
2023-02-19T18:30:00.927Z,53.50
2023-02-19T18:32:27.330Z,53.65
2023-02-19T18:34:54.135Z,53.46
2023-02-19T18:37:20.532Z,53.11
2023-02-19T18:39:48.030Z,53.54
2023-02-19T18:42:20.232Z,53.80
2023-02-19T18:44:47.413Z,53.60
2023-02-19T18:47:15.991Z,53.69
2023-02-19T18:49:42.493Z,53.98
2023-02-19T18:52:11.856Z,53.77
2023-02-19T18:54:38.361Z,53.34
2023-02-19T18:57:04.813Z,53.15
2023-02-19T18:59:31.183Z,52.99
2023-02-19T19:01:57.544Z,53.31
2023-02-19T19:04:24.412Z,52.95
2023-02-19T19:06:53.599Z,52.89
2023-02-19T19:09:20.028Z,52.09
2023-02-19T19:11:46.495Z,52.12
2023-02-19T19:14:12.943Z,52.20
2023-02-19T19:16:39.325Z,52.56
2023-02-19T19:19:05.722Z,52.62
2023-02-19T19:21:32.144Z,52.48
2023-02-19T19:23:58.597Z,53.54
2023-02-19T19:26:25.109Z,53.76
2023-02-19T19:28:51.587Z,54.15
2023-02-19T19:31:18.228Z,54.00
2023-02-19T19:33:44.823Z,53.39
2023-02-19T19:36:11.306Z,54.37
2023-02-19T19:38:37.695Z,53.84
2023-02-19T19:41:04.094Z,53.38
2023-02-19T19:43:30.534Z,53.27
2023-02-19T19:45:57.056Z,53.52
2023-02-19T19:48:23.519Z,53.57
2023-02-19T19:50:50.089Z,53.05
2023-02-19T19:53:16.466Z,54.03
2023-02-19T19:55:42.954Z,53.31
2023-02-19T19:58:09.315Z,53.27
2023-02-19T20:00:35.674Z,53.29
2023-02-19T20:03:02.175Z,53.76
2023-02-19T20:05:28.633Z,53.82
2023-02-19T20:07:55.016Z,53.99
2023-02-19T20:10:21.554Z,54.32
2023-02-19T20:12:47.952Z,54.25
2023-02-19T20:15:14.713Z,53.51
2023-02-19T20:17:41.094Z,53.97
2023-02-19T20:20:16.945Z,53.02
2023-02-19T20:22:43.733Z,53.85
2023-02-19T20:25:10.271Z,53.02
2023-02-19T20:27:36.663Z,53.78
2023-02-19T20:30:03.128Z,54.43
2023-02-19T20:32:29.800Z,54.97
2023-02-19T20:34:56.272Z,55.70
2023-02-19T20:37:22.705Z,54.93
2023-02-19T20:39:49.273Z,55.47
2023-02-19T20:42:16.553Z,54.70
2023-02-19T20:44:43.368Z,55.50
2023-02-19T20:47:09.797Z,53.67
2023-02-19T20:49:36.255Z,53.23
2023-02-19T20:52:03.966Z,53.25
2023-02-19T20:54:30.348Z,53.19
2023-02-19T20:56:58.102Z,53.82
2023-02-19T20:59:26.099Z,53.30
2023-02-19T21:01:52.604Z,53.95
2023-02-19T21:04:19.304Z,56.56
2023-02-19T21:06:46.729Z,56.21
2023-02-19T21:09:13.736Z,56.52
2023-02-19T21:11:42.049Z,55.97
2023-02-19T21:14:08.955Z,56.60
2023-02-19T21:16:43.180Z,55.55
2023-02-19T21:19:11.878Z,54.77
2023-02-19T21:21:38.406Z,54.36
2023-02-19T21:24:04.905Z,54.90
2023-02-19T21:26:38.866Z,54.54
2023-02-19T21:29:10.289Z,55.07
2023-02-19T21:31:36.703Z,55.36
2023-02-19T21:34:09.830Z,54.98
2023-02-19T21:36:36.212Z,55.26
2023-02-19T21:39:02.584Z,54.55
2023-02-19T21:41:29.021Z,55.15
2023-02-19T21:43:59.505Z,54.89
2023-02-19T21:46:25.993Z,55.05
2023-02-19T21:48:55.652Z,55.89
2023-02-19T21:51:23.811Z,56.01
2023-02-19T21:53:50.322Z,56.79
2023-02-19T21:56:16.786Z,57.85
2023-02-19T21:58:47.010Z,58.07
2023-02-19T22:01:16.216Z,57.33
2023-02-19T22:06:28.632Z,56.85
2023-02-19T22:08:55.320Z,56.49
2023-02-19T22:14:13.920Z,55.87
2023-02-19T22:16:40.630Z,56.92
2023-02-19T22:19:09.564Z,56.80
2023-02-19T22:21:35.947Z,55.92
2023-02-19T22:24:02.406Z,55.71
2023-02-19T22:29:19.872Z,55.40
2023-02-19T22:31:49.813Z,55.46
2023-02-19T22:34:16.284Z,54.94
2023-02-19T22:36:48.826Z,55.29
2023-02-19T22:39:15.181Z,54.97
2023-02-19T22:44:24.805Z,54.15
2023-02-19T22:47:00.139Z,54.54
2023-02-19T22:54:58.953Z,55.21
2023-02-19T22:57:25.464Z,55.53
2023-02-19T23:00:01.027Z,55.02
2023-02-19T23:02:27.525Z,55.63
2023-02-19T23:04:56.794Z,55.52
2023-02-19T23:07:24.534Z,54.76
2023-02-19T23:09:55.024Z,55.38
2023-02-19T23:15:15.401Z,55.01
2023-02-19T23:17:42.903Z,56.74
2023-02-19T23:20:12.079Z,58.91
2023-02-19T23:22:41.082Z,58.87
2023-02-19T23:25:07.795Z,59.49
2023-02-19T23:27:34.282Z,60.23
2023-02-19T23:30:06.682Z,61.15
2023-02-19T23:32:33.093Z,61.96
2023-02-19T23:34:59.546Z,61.04
2023-02-19T23:37:26.397Z,60.79
2023-02-19T23:39:53.508Z,60.85
2023-02-19T23:45:15.174Z,61.35
2023-02-19T23:47:43.318Z,60.74
2023-02-19T23:50:09.749Z,59.63
2023-02-19T23:52:38.196Z,60.01
2023-02-19T23:55:04.617Z,59.73
2023-02-19T23:57:31.123Z,58.94
2023-02-19T23:59:57.558Z,58.73
